createdAt,value
2023-01-01T00:00:28.930Z,10.00
2023-01-01T00:02:56.811Z,5.00
2023-01-01T00:05:42.244Z,4.00
2023-01-01T00:08:09.305Z,2.00
2023-01-01T00:10:37.364Z,3.25
2023-01-01T00:13:04.365Z,10.25
2023-01-01T00:15:31.203Z,7.00
2023-01-01T00:17:58.121Z,5.00
2023-01-01T00:20:27.649Z,9.75
2023-01-01T00:22:58.537Z,12.50
2023-01-01T00:25:25.478Z,15.50
2023-01-01T00:27:52.425Z,14.00
2023-01-01T00:30:19.368Z,13.00
2023-01-01T00:33:04.861Z,12.00
2023-01-01T00:35:31.811Z,14.25
2023-01-01T00:37:58.591Z,14.00
2023-01-01T00:40:25.625Z,10.75
2023-01-01T00:42:52.417Z,11.00
2023-01-01T00:45:22.332Z,15.75
2023-01-01T00:48:08.388Z,10.50
2023-01-01T00:50:35.255Z,10.00
2023-01-01T00:53:02.085Z,14.00
2023-01-01T00:55:29.076Z,10.25
2023-01-01T00:57:55.876Z,8.00
2023-01-01T01:00:22.891Z,5.00
2023-01-01T01:02:49.765Z,5.00
2023-01-01T01:05:16.830Z,3.00
2023-01-01T01:07:43.627Z,4.00
2023-01-01T01:10:11.021Z,2.00
2023-01-01T01:12:38.241Z,2.00
2023-01-01T01:15:06.752Z,3.75
2023-01-01T01:17:34.278Z,5.50
2023-01-01T01:20:01.372Z,6.00
2023-01-01T01:22:29.173Z,7.00
2023-01-01T01:24:56.805Z,3.00
2023-01-01T01:27:23.985Z,7.25
2023-01-01T01:29:50.980Z,2.50
2023-01-01T01:32:17.850Z,6.00
2023-01-01T01:34:44.819Z,2.50
2023-01-01T01:37:12.118Z,7.75
2023-01-01T01:39:39.363Z,3.25
2023-01-01T01:42:25.082Z,4.25
2023-01-01T01:44:56.908Z,7.75
2023-01-01T01:47:38.335Z,6.00
2023-01-01T01:50:05.536Z,10.00
2023-01-01T01:52:36.458Z,4.25
2023-01-01T01:55:08.144Z,1.50
2023-01-01T01:57:36.211Z,4.50
2023-01-01T02:00:10.664Z,1.25
2023-01-01T02:02:50.142Z,6.75
2023-01-01T02:05:20.411Z,7.00
2023-01-01T02:07:47.573Z,1.50
2023-01-01T02:10:14.518Z,5.50
2023-01-01T02:12:42.716Z,3.00
2023-01-01T02:15:10.139Z,2.00
2023-01-01T02:17:51.403Z,1.00
2023-01-01T02:20:27.445Z,1.00
2023-01-01T02:23:09.200Z,1.00
2023-01-01T02:26:16.589Z,1.00
2023-01-01T02:29:00.499Z,1.00
2023-01-01T02:31:38.348Z,1.00
2023-01-01T02:34:10.382Z,1.00
2023-01-01T02:36:43.974Z,1.00
2023-01-01T02:39:32.200Z,4.50
2023-01-01T02:42:00.392Z,3.00
2023-01-01T02:44:30.620Z,4.00
2023-01-01T02:47:05.703Z,6.00
2023-01-01T02:49:33.586Z,3.00
2023-01-01T02:52:07.076Z,1.00
2023-01-01T02:54:42.644Z,7.75
2023-01-01T02:57:37.301Z,10.00
2023-01-01T03:00:12.287Z,8.00
2023-01-01T03:03:10.317Z,6.00
2023-01-01T03:05:58.270Z,3.00
2023-01-01T03:08:30.962Z,3.00
2023-01-01T03:11:10.060Z,5.00
2023-01-01T03:13:48.183Z,2.00
2023-01-01T03:16:47.071Z,1.00
2023-01-01T03:19:19.111Z,5.25
2023-01-01T03:21:49.089Z,3.00
2023-01-01T03:24:25.993Z,1.00
2023-01-01T03:26:58.863Z,1.00
2023-01-01T03:29:28.894Z,1.25
2023-01-01T03:31:58.398Z,3.00
2023-01-01T03:34:34.058Z,3.00
2023-01-01T03:37:07.285Z,5.00
2023-01-01T03:39:38.633Z,2.50
2023-01-01T03:42:39.659Z,1.25
2023-01-01T03:45:19.935Z,1.00
2023-01-01T03:47:47.133Z,5.00
2023-01-01T03:50:15.382Z,2.50
2023-01-01T03:53:05.860Z,3.75
2023-01-01T03:55:51.174Z,3.50
2023-01-01T03:58:33.973Z,3.00
2023-01-01T04:01:21.268Z,6.75
2023-01-01T04:03:49.584Z,9.00
2023-01-01T04:06:17.350Z,9.00
2023-01-01T04:11:21.437Z,6.75
2023-01-01T04:13:48.664Z,6.75
2023-01-01T04:16:15.547Z,4.00
2023-01-01T04:18:42.485Z,2.25
2023-01-01T04:21:09.455Z,3.00
2023-01-01T04:23:36.370Z,3.75
2023-01-01T04:26:03.218Z,2.00
2023-01-01T04:28:30.097Z,2.00
2023-01-01T04:33:22.704Z,3.00
2023-01-01T04:35:49.531Z,2.00
2023-01-01T04:38:16.431Z,3.00
2023-01-01T04:40:43.327Z,2.25
2023-01-01T04:43:29.604Z,1.50
2023-01-01T04:46:01.260Z,2.00
2023-01-01T04:48:29.667Z,4.75
2023-01-01T04:51:05.355Z,6.00
2023-01-01T04:53:35.006Z,3.00
2023-01-01T04:56:06.628Z,2.75
2023-01-01T04:58:34.659Z,8.75
2023-01-01T05:01:02.360Z,8.00
2023-01-01T05:03:29.588Z,6.00
2023-01-01T05:06:04.130Z,5.00
2023-01-01T05:08:33.318Z,5.25
2023-01-01T05:11:20.951Z,10.00
2023-01-01T05:13:49.823Z,5.75
2023-01-01T05:16:19.298Z,3.00
2023-01-01T05:18:47.184Z,3.00
2023-01-01T05:21:28.915Z,4.25
2023-01-01T05:23:57.277Z,1.25
2023-01-01T05:26:25.930Z,4.75
2023-01-01T05:28:55.359Z,4.00
2023-01-01T05:31:24.676Z,3.50
2023-01-01T05:33:52.891Z,8.00
2023-01-01T05:36:27.978Z,8.75
2023-01-01T05:38:55.214Z,4.75
2023-01-01T05:41:22.898Z,3.00
2023-01-01T05:43:51.256Z,2.75
2023-01-01T05:46:24.420Z,5.00
2023-01-01T05:48:53.323Z,3.00
2023-01-01T05:51:22.670Z,3.00
2023-01-01T05:53:50.948Z,6.00
2023-01-01T05:56:36.950Z,5.50
2023-01-01T05:59:04.068Z,8.75
2023-01-01T06:01:32.070Z,7.00
2023-01-01T06:03:59.731Z,5.25
2023-01-01T06:06:30.302Z,7.50
2023-01-01T06:09:02.187Z,9.75
2023-01-01T06:11:30.079Z,6.75
2023-01-01T06:13:59.011Z,7.50
2023-01-01T06:16:27.312Z,8.00
2023-01-01T06:18:54.317Z,4.00
2023-01-01T06:21:23.948Z,8.00
2023-01-01T06:23:50.856Z,5.00
2023-01-01T06:26:30.152Z,4.50
2023-01-01T06:28:57.971Z,5.00
2023-01-01T06:31:26.667Z,5.00
2023-01-01T06:33:53.696Z,3.00
2023-01-01T06:36:22.917Z,7.00
2023-01-01T06:38:53.903Z,7.50
2023-01-01T06:41:25.524Z,7.25
2023-01-01T06:43:55.036Z,4.25
2023-01-01T06:46:27.691Z,6.00
2023-01-01T06:48:57.778Z,8.00
2023-01-01T06:51:30.252Z,5.00
2023-01-01T06:54:01.915Z,3.00
2023-01-01T06:56:29.979Z,4.75
2023-01-01T06:58:57.148Z,9.75
2023-01-01T07:01:26.493Z,7.25
2023-01-01T07:04:01.985Z,5.50
2023-01-01T07:06:34.770Z,7.00
2023-01-01T07:09:02.707Z,4.25
2023-01-01T07:11:31.429Z,3.00
2023-01-01T07:13:59.832Z,5.00
2023-01-01T07:16:27.767Z,4.00
2023-01-01T07:18:56.575Z,2.50
2023-01-01T07:21:45.375Z,8.50
2023-01-01T07:24:17.039Z,9.00
2023-01-01T07:26:45.654Z,5.00
2023-01-01T07:29:13.630Z,3.50
2023-01-01T07:31:43.258Z,4.25
2023-01-01T07:34:15.153Z,8.25
2023-01-01T07:36:43.075Z,5.00
2023-01-01T07:39:12.904Z,5.50
2023-01-01T07:41:40.299Z,8.25
2023-01-01T07:44:07.458Z,8.00
2023-01-01T07:46:36.308Z,6.50
2023-01-01T07:49:04.671Z,7.50
2023-01-01T07:51:31.902Z,5.50
2023-01-01T07:54:17.635Z,5.00
2023-01-01T07:56:45.214Z,4.00
2023-01-01T07:59:18.531Z,5.00
2023-01-01T08:01:47.560Z,8.25
2023-01-01T08:04:14.802Z,3.25
2023-01-01T08:06:42.170Z,4.25
2023-01-01T08:09:12.117Z,9.00
2023-01-01T08:11:39.251Z,10.00
2023-01-01T08:14:06.495Z,8.00
2023-01-01T08:16:33.737Z,9.00
2023-01-01T08:19:00.959Z,6.00
2023-01-01T08:21:28.624Z,10.00
2023-01-01T08:23:56.549Z,7.75
2023-01-01T08:26:32.792Z,3.00
2023-01-01T08:29:04.528Z,7.00
2023-01-01T08:31:31.792Z,6.00
2023-01-01T08:33:58.772Z,9.00
2023-01-01T08:36:26.191Z,11.50
2023-01-01T08:38:53.540Z,12.00
2023-01-01T08:41:22.144Z,13.25
2023-01-01T08:43:49.932Z,7.50
2023-01-01T08:46:17.722Z,10.75
2023-01-01T08:48:44.696Z,14.00
2023-01-01T08:51:11.928Z,9.75
2023-01-01T08:53:39.117Z,10.00
2023-01-01T08:56:08.436Z,5.75
2023-01-01T08:58:40.286Z,7.50
2023-01-01T09:01:08.016Z,5.50
2023-01-01T09:03:39.052Z,5.50
2023-01-01T09:06:11.001Z,5.00
2023-01-01T09:08:38.075Z,4.50
2023-01-01T09:11:05.608Z,7.25
2023-01-01T09:13:33.312Z,8.00
2023-01-01T09:16:00.908Z,6.00
2023-01-01T09:18:28.728Z,8.75
2023-01-01T09:20:55.630Z,10.00
2023-01-01T09:23:22.434Z,9.00
2023-01-01T09:25:49.903Z,4.00
2023-01-01T09:28:21.782Z,4.50
2023-01-01T09:30:52.922Z,10.50
2023-01-01T09:33:19.873Z,13.00
2023-01-01T09:35:47.098Z,12.00
2023-01-01T09:38:14.011Z,13.50
2023-01-01T09:41:12.115Z,12.50
2023-01-01T09:44:09.803Z,14.50
2023-01-01T09:46:37.271Z,9.75
2023-01-01T09:49:32.010Z,9.00
2023-01-01T09:52:01.013Z,8.75
2023-01-01T09:54:40.723Z,6.00
2023-01-01T09:57:18.061Z,4.00
2023-01-01T09:59:46.978Z,8.75
2023-01-01T10:02:32.855Z,7.50
2023-01-01T10:05:20.249Z,4.00
2023-01-01T10:11:32.979Z,8.25
2023-01-01T10:14:04.164Z,11.00
2023-01-01T10:16:40.316Z,9.75
2023-01-01T10:19:26.105Z,9.75
2023-01-01T10:22:00.204Z,7.50
2023-01-01T10:25:06.644Z,4.00
2023-01-01T10:27:41.921Z,4.00
2023-01-01T10:30:28.478Z,4.00
2023-01-01T10:32:56.893Z,3.50
2023-01-01T10:35:45.022Z,6.00
2023-01-01T10:38:23.245Z,5.00
2023-01-01T10:40:53.228Z,7.75
2023-01-01T10:43:20.052Z,10.00
2023-01-01T10:46:13.107Z,5.50
2023-01-01T10:48:40.150Z,7.00
2023-01-01T10:51:14.715Z,11.25
2023-01-01T10:53:51.063Z,7.50
2023-01-01T10:56:21.036Z,10.50
2023-01-01T10:58:47.834Z,6.50
2023-01-01T11:01:34.174Z,6.75
2023-01-01T11:04:24.556Z,13.00
2023-01-01T11:06:51.727Z,12.00
2023-01-01T11:09:28.524Z,12.00
2023-01-01T11:12:07.935Z,6.50
2023-01-01T11:14:42.880Z,3.00
2023-01-01T11:17:10.664Z,4.00
2023-01-01T11:19:43.017Z,3.25
2023-01-01T11:22:38.399Z,3.00
2023-01-01T11:25:16.589Z,6.50
2023-01-01T11:27:43.904Z,8.00
2023-01-01T11:30:28.813Z,6.00
2023-01-01T11:33:02.578Z,3.25
2023-01-01T11:35:32.794Z,3.00
2023-01-01T11:37:59.996Z,5.00
2023-01-01T11:40:31.886Z,8.50
2023-01-01T11:43:21.503Z,6.75
2023-01-01T11:45:52.743Z,3.00
2023-01-01T11:48:32.971Z,5.75
2023-01-01T11:51:06.372Z,4.00
2023-01-01T11:53:37.759Z,2.00
2023-01-01T11:56:20.496Z,3.00
2023-01-01T11:58:59.724Z,5.50
2023-01-01T12:01:33.294Z,4.25
2023-01-01T12:04:08.280Z,6.00
2023-01-01T12:06:37.949Z,10.00
2023-01-01T12:09:18.451Z,8.25
2023-01-01T12:12:00.244Z,8.00
2023-01-01T12:14:55.936Z,5.00
2023-01-01T12:17:27.989Z,3.00
2023-01-01T12:20:25.237Z,7.00
2023-01-01T12:22:56.087Z,4.75
2023-01-01T12:25:23.093Z,9.25
2023-01-01T12:28:02.220Z,8.50
2023-01-01T12:30:44.967Z,5.00
2023-01-01T12:33:21.169Z,9.50
2023-01-01T12:36:39.147Z,12.50
2023-01-01T12:39:30.806Z,12.00
2023-01-01T12:42:12.258Z,10.50
2023-01-01T12:45:04.312Z,13.00
2023-01-01T12:47:37.138Z,11.50
2023-01-01T12:50:22.525Z,6.00
2023-01-01T12:52:52.516Z,7.75
2023-01-01T12:55:38.086Z,11.00
2023-01-01T12:58:48.921Z,12.00
2023-01-01T13:01:22.556Z,7.25
2023-01-01T13:04:00.915Z,3.00
2023-01-01T13:06:43.916Z,5.50
2023-01-01T13:09:18.367Z,7.00
2023-01-01T13:11:51.026Z,6.00
2023-01-01T13:14:18.191Z,7.25
2023-01-01T13:16:55.759Z,4.00
2023-01-01T13:19:34.731Z,4.50
2023-01-01T13:22:27.300Z,3.50
2023-01-01T13:25:09.809Z,7.00
2023-01-01T13:27:55.387Z,6.25
2023-01-01T13:30:37.648Z,4.00
2023-01-01T13:33:21.585Z,4.00
2023-01-01T13:36:07.631Z,6.25
2023-01-01T13:38:49.899Z,4.75
2023-01-01T13:41:35.739Z,7.25
2023-01-01T13:44:02.864Z,10.50
2023-01-01T13:46:43.213Z,9.75
2023-01-01T13:49:29.673Z,11.00
2023-01-01T13:52:08.233Z,8.00
2023-01-01T13:55:08.952Z,13.00
2023-01-01T13:57:57.452Z,7.00
2023-01-01T14:00:31.541Z,6.25
2023-01-01T14:03:11.225Z,5.50
2023-01-01T14:05:46.740Z,3.50
2023-01-01T14:08:34.371Z,7.75
2023-01-01T14:11:03.432Z,13.25
2023-01-01T14:13:39.011Z,11.00
2023-01-01T14:16:10.372Z,7.50
2023-01-01T14:19:02.803Z,8.75
2023-01-01T14:21:33.346Z,10.00
2023-01-01T14:24:06.644Z,12.00
2023-01-01T14:26:37.587Z,8.00
2023-01-01T14:29:10.596Z,10.00
2023-01-01T14:31:44.458Z,7.00
2023-01-01T14:34:35.021Z,4.00
2023-01-01T14:37:04.736Z,4.00
2023-01-01T14:40:05.052Z,4.00
2023-01-01T14:42:32.634Z,5.00
2023-01-01T14:44:59.752Z,8.00
2023-01-01T14:47:35.975Z,6.00
2023-01-01T14:50:09.397Z,11.50
2023-01-01T14:52:36.684Z,10.00
2023-01-01T14:55:05.877Z,10.75
2023-01-01T14:57:37.338Z,10.00
2023-01-01T15:00:21.684Z,12.00
2023-01-01T15:02:48.877Z,6.50
2023-01-01T15:05:36.670Z,5.75
2023-01-01T15:08:17.646Z,6.00
2023-01-01T15:10:44.795Z,4.75
2023-01-01T15:13:22.901Z,4.00
2023-01-01T15:15:53.410Z,7.75
2023-01-01T15:18:37.309Z,9.00
2023-01-01T15:21:09.972Z,8.00
2023-01-01T15:23:37.230Z,5.75
2023-01-01T15:26:15.984Z,8.50
2023-01-01T15:28:43.057Z,10.00
2023-01-01T15:31:09.980Z,12.00
2023-01-01T15:33:36.967Z,12.00
2023-01-01T15:36:04.170Z,14.00
2023-01-01T15:38:34.925Z,10.25
2023-01-01T15:41:21.785Z,10.00
2023-01-01T15:43:48.767Z,10.00
2023-01-01T15:46:27.453Z,8.00
2023-01-01T15:48:57.551Z,6.00
2023-01-01T15:51:27.161Z,6.00
2023-01-01T15:53:59.428Z,11.75
2023-01-01T15:56:33.113Z,11.00
2023-01-01T15:59:09.819Z,8.00
2023-01-01T16:01:40.368Z,12.75
2023-01-01T16:04:20.794Z,12.50
2023-01-01T16:06:54.323Z,12.00
2023-01-01T16:09:21.922Z,8.00
2023-01-01T16:11:57.025Z,9.75
2023-01-01T16:14:24.433Z,14.50
2023-01-01T16:16:55.211Z,12.00
2023-01-01T16:19:25.786Z,14.25
2023-01-01T16:21:52.869Z,17.00
2023-01-01T16:24:20.361Z,19.00
2023-01-01T16:26:48.143Z,15.50
2023-01-01T16:29:15.942Z,13.00
2023-01-01T16:31:43.737Z,12.75
2023-01-01T16:34:14.012Z,14.00
2023-01-01T16:36:41.651Z,15.50
2023-01-01T16:39:09.160Z,15.00
2023-01-01T16:41:36.279Z,14.00
2023-01-01T16:44:03.151Z,12.25
2023-01-01T16:46:30.994Z,19.25
2023-01-01T16:48:58.129Z,15.25
2023-01-01T16:51:28.622Z,14.50
2023-01-01T16:53:55.524Z,13.75
2023-01-01T16:56:22.478Z,12.00
2023-01-01T16:58:52.133Z,14.00
2023-01-01T17:01:23.806Z,13.00
2023-01-01T17:03:50.928Z,16.00
2023-01-01T17:06:18.396Z,17.25
2023-01-01T17:08:45.326Z,16.00
2023-01-01T17:11:14.997Z,15.00
2023-01-01T17:13:43.711Z,14.25
2023-01-01T17:16:12.737Z,16.00
2023-01-01T17:19:13.171Z,17.50
2023-01-01T17:21:27.285Z,20.00
2023-01-01T17:23:54.229Z,18.00
2023-01-01T17:26:23.726Z,15.75
2023-01-01T17:28:59.801Z,14.25
2023-01-01T17:31:27.512Z,22.25
2023-01-01T17:33:54.457Z,19.50
2023-01-01T17:36:21.327Z,14.50
2023-01-01T17:38:48.190Z,14.00
2023-01-01T17:41:16.675Z,14.00
2023-01-01T17:43:45.889Z,20.50
2023-01-01T17:46:18.922Z,14.75
2023-01-01T17:48:46.838Z,17.00
2023-01-01T17:51:17.099Z,15.75
2023-01-01T17:53:46.486Z,16.00
2023-01-01T17:56:15.614Z,18.50
2023-01-01T17:58:44.553Z,18.00
2023-01-01T18:01:24.438Z,14.00
2023-01-01T18:03:54.269Z,16.50
2023-01-01T18:06:22.022Z,20.25
2023-01-01T18:08:49.102Z,20.00
2023-01-01T18:11:16.032Z,20.50
2023-01-01T18:13:42.927Z,23.00
2023-01-01T18:16:09.933Z,22.00
2023-01-01T18:18:38.766Z,20.00
2023-01-01T18:21:15.323Z,20.50
2023-01-01T18:23:42.289Z,22.00
2023-01-01T18:26:10.763Z,17.50
2023-01-01T18:28:38.641Z,21.00
2023-01-01T18:31:12.075Z,19.50
2023-01-01T18:33:39.235Z,17.25
2023-01-01T18:36:11.896Z,21.00
2023-01-01T18:38:41.787Z,21.00
2023-01-01T18:41:08.699Z,23.25
2023-01-01T18:43:35.732Z,21.00
2023-01-01T18:46:02.649Z,20.00
2023-01-01T18:48:30.698Z,21.75
2023-01-01T18:50:57.544Z,19.50
2023-01-01T18:53:24.477Z,18.25
2023-01-01T18:55:54.013Z,22.50
2023-01-01T18:58:23.650Z,24.50
2023-01-01T19:00:53.630Z,23.00
2023-01-01T19:03:22.676Z,24.00
2023-01-01T19:05:52.045Z,22.00
2023-01-01T19:08:21.488Z,22.00
2023-01-01T19:11:02.045Z,22.75
2023-01-01T19:13:34.518Z,20.25
2023-01-01T19:16:28.676Z,21.00
2023-01-01T19:19:18.839Z,22.75
2023-01-01T19:21:51.761Z,21.00
2023-01-01T19:24:25.194Z,19.50
2023-01-01T19:26:58.921Z,20.00
2023-01-01T19:29:38.571Z,18.00
2023-01-01T19:32:08.822Z,16.00
2023-01-01T19:34:36.551Z,21.00
2023-01-01T19:37:03.697Z,24.00
2023-01-01T19:39:31.747Z,23.00
2023-01-01T19:42:00.518Z,24.00
2023-01-01T19:44:32.266Z,23.00
2023-01-01T19:46:59.831Z,24.00
2023-01-01T19:49:27.816Z,23.00
2023-01-01T19:51:55.604Z,22.00
2023-01-01T19:54:22.553Z,23.00
2023-01-01T19:56:50.348Z,24.00
2023-01-01T19:59:17.183Z,21.00
2023-01-01T20:01:44.296Z,20.00
2023-01-01T20:04:11.336Z,21.75
2023-01-01T20:06:38.228Z,24.50
2023-01-01T20:09:06.076Z,26.25
2023-01-01T20:11:33.111Z,21.00
2023-01-01T20:14:06.073Z,19.25
2023-01-01T20:16:34.085Z,19.00
2023-01-01T20:19:00.993Z,20.00
2023-01-01T20:21:27.940Z,20.00
2023-01-01T20:23:55.850Z,23.25
2023-01-01T20:26:23.276Z,21.00
2023-01-01T20:28:52.958Z,18.50
2023-01-01T20:31:20.042Z,21.00
2023-01-01T20:33:47.075Z,22.00
2023-01-01T20:36:14.013Z,20.50
2023-01-01T20:38:40.928Z,21.00
2023-01-01T20:41:07.766Z,20.75
2023-01-01T20:43:34.669Z,19.25
2023-01-01T20:46:01.762Z,22.25
2023-01-01T20:48:28.683Z,21.50
2023-01-01T20:50:55.610Z,23.75
2023-01-01T20:53:22.468Z,23.00
2023-01-01T20:55:49.472Z,20.00
2023-01-01T20:58:16.264Z,18.00
2023-01-01T21:00:43.161Z,20.25
2023-01-01T21:03:10.039Z,20.00
2023-01-01T21:05:37.844Z,19.50
2023-01-01T21:08:05.025Z,21.00
2023-01-01T21:10:32.056Z,19.00
2023-01-01T21:12:58.980Z,20.25
2023-01-01T21:15:25.975Z,23.50
2023-01-01T21:17:52.883Z,23.00
2023-01-01T21:20:19.890Z,23.00
2023-01-01T21:22:47.550Z,21.00
2023-01-01T21:25:50.297Z,19.00
2023-01-01T21:28:14.338Z,21.50
2023-01-01T21:30:51.400Z,19.00
2023-01-01T21:33:23.876Z,16.00
2023-01-01T21:35:51.058Z,19.50
2023-01-01T21:38:29.530Z,21.00
2023-01-01T21:40:58.204Z,20.00
2023-01-01T21:43:28.078Z,22.25
2023-01-01T21:46:17.604Z,20.00
2023-01-01T21:48:54.143Z,18.50
2023-01-01T21:51:28.723Z,18.00
2023-01-01T21:54:10.762Z,15.00
2023-01-01T21:56:43.512Z,20.25
2023-01-01T21:59:19.629Z,21.50
2023-01-01T22:01:49.285Z,22.00
2023-01-01T22:04:25.640Z,18.25
2023-01-01T22:06:55.891Z,17.00
2023-01-01T22:09:24.795Z,21.00
2023-01-01T22:11:59.330Z,21.00
2023-01-01T22:14:33.056Z,23.00
2023-01-01T22:17:00.895Z,19.00
2023-01-01T22:19:37.233Z,19.00
2023-01-01T22:22:15.019Z,20.50
2023-01-01T22:24:44.680Z,20.00
2023-01-01T22:27:28.685Z,21.00
2023-01-01T22:30:18.281Z,23.00
2023-01-01T22:33:00.670Z,22.00
2023-01-01T22:35:30.302Z,23.00
2023-01-01T22:37:58.962Z,20.00
2023-01-01T22:40:31.984Z,17.00
2023-01-01T22:43:10.894Z,15.75
2023-01-01T22:45:42.095Z,20.00
2023-01-01T22:48:19.017Z,19.50
2023-01-01T22:50:46.035Z,22.00
2023-01-01T22:53:12.883Z,18.50
2023-01-01T22:55:39.822Z,19.75
2023-01-01T22:58:06.761Z,23.75
2023-01-01T23:00:34.878Z,22.00
2023-01-01T23:03:01.799Z,19.00
2023-01-01T23:05:29.093Z,18.00
2023-01-01T23:07:56.260Z,21.00
2023-01-01T23:10:23.179Z,19.00
2023-01-01T23:12:50.172Z,22.50
2023-01-01T23:15:17.077Z,25.00
2023-01-01T23:17:43.942Z,21.25
2023-01-01T23:20:11.102Z,17.00
2023-01-01T23:22:41.772Z,19.50
2023-01-01T23:25:13.488Z,18.00
2023-01-01T23:27:40.900Z,15.00
2023-01-01T23:30:08.345Z,16.00
2023-01-01T23:32:36.295Z,19.75
2023-01-01T23:35:03.595Z,17.00
2023-01-01T23:37:31.574Z,19.00
2023-01-01T23:39:58.476Z,17.00
2023-01-01T23:42:25.422Z,17.00
2023-01-01T23:44:52.489Z,20.00
2023-01-01T23:47:19.473Z,21.00
2023-01-01T23:49:46.412Z,21.00
2023-01-01T23:52:13.538Z,21.75
2023-01-01T23:54:40.458Z,24.00
2023-01-01T23:57:07.418Z,20.00
2023-01-01T23:59:34.307Z,18.50
